CheckWX is a tool to help pilots better visualize weather data.  It is not intended as a substitute for an official pre-flight weather briefing.

03:26:20 UTC

DAOB METAR
Bou Chekif Airport
Tiaret, Algeria
Current

26 mins ago

DAOB 240300Z 07005KT CAVOK 04/03 Q1022
Observed
Mar-24 @ 03:00 UTC
Wind
  • 070° at 5 KTS
Visibility
10,000+ meters
Flight Rules
VFR
Cloud Levels
  • Clear skies
Temperature
C / 39°F
Dewpoint
C / 37°F
Humidity
93%
Altimeter
30.18" Hg
Pressure
1021.92 hPa
Previous

1 hour ago

DAOB 240200Z 09005KT CAVOK 04/03 Q1022
Observed
Mar-24 @ 02:00 UTC
Wind
  • 090° at 5 KTS
Visibility
10,000+ meters
Flight Rules
VFR
Cloud Levels
  • Clear skies
Temperature
C / 39°F
Dewpoint
C / 37°F
Humidity
93%
Altimeter
30.18" Hg
Pressure
1021.92 hPa
Previous

2 hours ago

DAOB 240100Z 09009KT CAVOK 05/04 Q1023
Observed
Mar-24 @ 01:00 UTC
Wind
  • 090° at 9 KTS
Visibility
10,000+ meters
Flight Rules
VFR
Cloud Levels
  • Clear skies
Temperature
C / 41°F
Dewpoint
C / 39°F
Humidity
93%
Altimeter
30.21" Hg
Pressure
1022.92 hPa